Terminal Aerodrome Forecast
Issued by NWS Portland, ME

Home | Current Version | Previous Version | Text Only | Print | Product List | Glossary On
Versions: 1 2 3 4 5 6 7 8 9 10 11 12 13 14 15 16 17 18 19 20 21 22 23 24
000
FTUS41 KGYX 261120
TAFPWM
TAF
KPWM 261120Z 2612/2712 03005KT 1 1/2SM -RADZ BR OVC003
      WS020/13035KT
     FM262000 04005KT 1SM -RADZ BR OVC003 WS020/12035KT
     FM270100 04004KT 1/2SM -RADZ FG OVC003=

USA.gov is the U.S. government's official web portal to all federal, state and local government web resources and services.